sensor_id;sensor_type;location;lat;lon;timestamp;pressure;altitude;pressure_sealevel;temperature;humidity
37368;BME280;23240;43.210;27.910;2023-07-13T00:01:04;101193.31;;;24.08;100.00
37368;BME280;23240;43.210;27.910;2023-07-13T00:03:29;101193.94;;;24.10;100.00
37368;BME280;23240;43.210;27.910;2023-07-13T00:06:00;101183.19;;;24.09;100.00
37368;BME280;23240;43.210;27.910;2023-07-13T00:08:26;101188.84;;;24.07;100.00
37368;BME280;23240;43.210;27.910;2023-07-13T00:10:51;101186.53;;;24.04;100.00
37368;BME280;23240;43.210;27.910;2023-07-13T00:13:19;101184.66;;;24.05;100.00
37368;BME280;23240;43.210;27.910;2023-07-13T00:15:44;101183.81;;;24.04;100.00
37368;BME280;23240;43.210;27.910;2023-07-13T00:18:10;101178.34;;;24.11;100.00
37368;BME280;23240;43.210;27.910;2023-07-13T00:20:35;101171.81;;;24.12;100.00
37368;BME280;23240;43.210;27.910;2023-07-13T00:23:00;101173.72;;;24.11;100.00
37368;BME280;23240;43.210;27.910;2023-07-13T00:25:26;101165.72;;;24.10;100.00
37368;BME280;23240;43.210;27.910;2023-07-13T00:27:53;101163.16;;;24.02;100.00
37368;BME280;23240;43.210;27.910;2023-07-13T00:30:18;101164.44;;;24.06;100.00
37368;BME280;23240;43.210;27.910;2023-07-13T00:32:44;101164.66;;;24.04;100.00
37368;BME280;23240;43.210;27.910;2023-07-13T00:35:09;101158.75;;;24.07;100.00
37368;BME280;23240;43.210;27.910;2023-07-13T00:37:35;101147.63;;;24.09;100.00
37368;BME280;23240;43.210;27.910;2023-07-13T00:40:04;101155.00;;;24.08;100.00
37368;BME280;23240;43.210;27.910;2023-07-13T00:42:30;101159.81;;;24.06;100.00
37368;BME280;23240;43.210;27.910;2023-07-13T00:47:27;101145.91;;;24.01;100.00
37368;BME280;23240;43.210;27.910;2023-07-13T00:49:52;101148.41;;;23.96;100.00
37368;BME280;23240;43.210;27.910;2023-07-13T00:52:18;101140.34;;;23.88;100.00
37368;BME280;23240;43.210;27.910;2023-07-13T00:54:44;101140.34;;;23.88;100.00
37368;BME280;23240;43.210;27.910;2023-07-13T00:57:11;101147.94;;;23.86;100.00
37368;BME280;23240;43.210;27.910;2023-07-13T00:59:38;101143.75;;;23.90;100.00
37368;BME280;23240;43.210;27.910;2023-07-13T01:02:04;101144.13;;;23.87;100.00
37368;BME280;23240;43.210;27.910;2023-07-13T01:04:30;101142.66;;;23.84;100.00
37368;BME280;23240;43.210;27.910;2023-07-13T01:06:55;101138.22;;;23.83;100.00
37368;BME280;23240;43.210;27.910;2023-07-13T01:09:22;101138.22;;;23.83;100.00
37368;BME280;23240;43.210;27.910;2023-07-13T01:11:47;101142.84;;;23.83;100.00
37368;BME280;23240;43.210;27.910;2023-07-13T01:14:12;101137.16;;;23.78;100.00
37368;BME280;23240;43.210;27.910;2023-07-13T01:16:39;101139.50;;;23.81;100.00
37368;BME280;23240;43.210;27.910;2023-07-13T01:19:09;101131.91;;;23.83;100.00
37368;BME280;23240;43.210;27.910;2023-07-13T01:21:38;101127.72;;;23.80;100.00
37368;BME280;23240;43.210;27.910;2023-07-13T01:24:08;101123.72;;;23.83;100.00
37368;BME280;23240;43.210;27.910;2023-07-13T01:26:33;101113.66;;;23.90;100.00
37368;BME280;23240;43.210;27.910;2023-07-13T01:28:59;101115.72;;;23.88;100.00
37368;BME280;23240;43.210;27.910;2023-07-13T01:31:24;101119.53;;;23.87;100.00
37368;BME280;23240;43.210;27.910;2023-07-13T01:33:49;101119.06;;;23.83;100.00
37368;BME280;23240;43.210;27.910;2023-07-13T01:36:14;101119.28;;;23.82;100.00
37368;BME280;23240;43.210;27.910;2023-07-13T01:38:40;101115.09;;;23.79;100.00
37368;BME280;23240;43.210;27.910;2023-07-13T01:41:05;101115.94;;;23.80;100.00
37368;BME280;23240;43.210;27.910;2023-07-13T01:43:31;101112.53;;;23.78;100.00
37368;BME280;23240;43.210;27.910;2023-07-13T01:45:57;101116.72;;;23.74;100.00
37368;BME280;23240;43.210;27.910;2023-07-13T01:48:22;101113.34;;;23.72;100.00
37368;BME280;23240;43.210;27.910;2023-07-13T01:50:47;101111.25;;;23.74;100.00
37368;BME280;23240;43.210;27.910;2023-07-13T01:53:13;101108.28;;;23.69;100.00
37368;BME280;23240;43.210;27.910;2023-07-13T01:55:38;101108.94;;;23.71;100.00
37368;BME280;23240;43.210;27.910;2023-07-13T01:58:04;101119.66;;;23.72;100.00
37368;BME280;23240;43.210;27.910;2023-07-13T02:00:29;101116.09;;;23.78;100.00
37368;BME280;23240;43.210;27.910;2023-07-13T02:02:54;101112.13;;;23.74;100.00
37368;BME280;23240;43.210;27.910;2023-07-13T02:05:20;101117.75;;;23.73;100.00
37368;BME280;23240;43.210;27.910;2023-07-13T02:07:45;101109.97;;;23.70;100.00
37368;BME280;23240;43.210;27.910;2023-07-13T02:10:10;101109.97;;;23.70;100.00
37368;BME280;23240;43.210;27.910;2023-07-13T02:12:36;101111.66;;;23.71;100.00
37368;BME280;23240;43.210;27.910;2023-07-13T02:15:02;101112.06;;;23.68;100.00
37368;BME280;23240;43.210;27.910;2023-07-13T02:17:28;101119.22;;;23.69;100.00
37368;BME280;23240;43.210;27.910;2023-07-13T02:19:53;101113.34;;;23.72;100.00
37368;BME280;23240;43.210;27.910;2023-07-13T02:22:19;101107.66;;;23.73;100.00
37368;BME280;23240;43.210;27.910;2023-07-13T02:24:44;101109.56;;;23.73;100.00
37368;BME280;23240;43.210;27.910;2023-07-13T02:27:09;101105.34;;;23.70;100.00
37368;BME280;23240;43.210;27.910;2023-07-13T02:29:35;101118.81;;;23.72;100.00
37368;BME280;23240;43.210;27.910;2023-07-13T02:32:00;101109.78;;;23.71;100.00
37368;BME280;23240;43.210;27.910;2023-07-13T02:34:25;101110.84;;;23.77;100.00
37368;BME280;23240;43.210;27.910;2023-07-13T02:36:51;101110.44;;;23.80;100.00
37368;BME280;23240;43.210;27.910;2023-07-13T02:39:16;101102.88;;;23.82;100.00
37368;BME280;23240;43.210;27.910;2023-07-13T02:41:42;101100.78;;;23.84;100.00
37368;BME280;23240;43.210;27.910;2023-07-13T02:44:07;101100.78;;;23.84;100.00
37368;BME280;23240;43.210;27.910;2023-07-13T02:46:35;101093.84;;;23.88;100.00
37368;BME280;23240;43.210;27.910;2023-07-13T02:49:00;101099.13;;;23.90;100.00
37368;BME280;23240;43.210;27.910;2023-07-13T02:51:26;101105.00;;;23.93;100.00
37368;BME280;23240;43.210;27.910;2023-07-13T02:53:51;101100.84;;;23.97;100.00
37368;BME280;23240;43.210;27.910;2023-07-13T02:56:17;101096.63;;;24.01;100.00
37368;BME280;23240;43.210;27.910;2023-07-13T02:58:44;101091.59;;;24.05;100.00
37368;BME280;23240;43.210;27.910;2023-07-13T03:01:10;101098.53;;;24.07;100.00
37368;BME280;23240;43.210;27.910;2023-07-13T03:03:35;101086.97;;;24.05;100.00
37368;BME280;23240;43.210;27.910;2023-07-13T03:06:01;101086.16;;;24.11;100.00
37368;BME280;23240;43.210;27.910;2023-07-13T03:08:27;101081.31;;;24.14;100.00
37368;BME280;23240;43.210;27.910;2023-07-13T03:10:59;101081.97;;;24.22;100.00
37368;BME280;23240;43.210;27.910;2023-07-13T03:13:24;101078.19;;;24.30;100.00
37368;BME280;23240;43.210;27.910;2023-07-13T03:15:50;101068.78;;;24.39;100.00
37368;BME280;23240;43.210;27.910;2023-07-13T03:18:15;101067.53;;;24.48;100.00
37368;BME280;23240;43.210;27.910;2023-07-13T03:20:40;101071.75;;;24.57;100.00
37368;BME280;23240;43.210;27.910;2023-07-13T03:23:06;101075.13;;;24.59;100.00
37368;BME280;23240;43.210;27.910;2023-07-13T03:25:31;101069.84;;;24.65;100.00
37368;BME280;23240;43.210;27.910;2023-07-13T03:27:56;101063.31;;;24.66;100.00
37368;BME280;23240;43.210;27.910;2023-07-13T03:30:21;101045.63;;;24.61;100.00
37368;BME280;23240;43.210;27.910;2023-07-13T03:32:47;101045.00;;;24.66;100.00
37368;BME280;23240;43.210;27.910;2023-07-13T03:35:12;101041.41;;;24.66;100.00
37368;BME280;23240;43.210;27.910;2023-07-13T03:37:38;101036.56;;;24.68;100.00
37368;BME280;23240;43.210;27.910;2023-07-13T03:40:07;101043.72;;;24.69;100.00
37368;BME280;23240;43.210;27.910;2023-07-13T03:42:34;101039.94;;;24.70;100.00
37368;BME280;23240;43.210;27.910;2023-07-13T03:44:59;101034.88;;;24.73;100.00
37368;BME280;23240;43.210;27.910;2023-07-13T03:47:25;101038.25;;;24.82;100.00
37368;BME280;23240;43.210;27.910;2023-07-13T03:49:50;101046.47;;;24.82;100.00
37368;BME280;23240;43.210;27.910;2023-07-13T03:52:15;101047.31;;;24.82;100.00
37368;BME280;23240;43.210;27.910;2023-07-13T03:54:40;101059.09;;;24.90;100.00
37368;BME280;23240;43.210;27.910;2023-07-13T03:57:06;101043.72;;;24.82;100.00
37368;BME280;23240;43.210;27.910;2023-07-13T03:59:31;101039.53;;;24.86;100.00
37368;BME280;23240;43.210;27.910;2023-07-13T04:01:57;101036.75;;;24.99;100.00
37368;BME280;23240;43.210;27.910;2023-07-13T04:04:22;101035.72;;;25.07;100.00
37368;BME280;23240;43.210;27.910;2023-07-13T04:06:47;101040.13;;;25.08;100.00
37368;BME280;23240;43.210;27.910;2023-07-13T04:09:12;101034.66;;;25.15;100.00
37368;BME280;23240;43.210;27.910;2023-07-13T04:11:38;101041.81;;;25.16;100.00
37368;BME280;23240;43.210;27.910;2023-07-13T04:14:03;101034.63;;;25.21;100.00
37368;BME280;23240;43.210;27.910;2023-07-13T04:16:29;101027.88;;;25.24;100.00
37368;BME280;23240;43.210;27.910;2023-07-13T04:18:54;101027.22;;;25.28;100.00
37368;BME280;23240;43.210;27.910;2023-07-13T04:21:24;101027.22;;;25.35;100.00
37368;BME280;23240;43.210;27.910;2023-07-13T04:23:50;101032.03;;;25.46;100.00
37368;BME280;23240;43.210;27.910;2023-07-13T04:26:15;101030.94;;;25.60;100.00
37368;BME280;23240;43.210;27.910;2023-07-13T04:28:41;101020.75;;;25.74;100.00
37368;BME280;23240;43.210;27.910;2023-07-13T04:31:06;101024.91;;;25.90;100.00
37368;BME280;23240;43.210;27.910;2023-07-13T04:33:31;101025.59;;;26.17;100.00
37368;BME280;23240;43.210;27.910;2023-07-13T04:35:57;101025.16;;;26.77;100.00
37368;BME280;23240;43.210;27.910;2023-07-13T04:38:23;101019.47;;;27.77;100.00
37368;BME280;23240;43.210;27.910;2023-07-13T04:40:49;101014.44;;;28.46;100.00
37368;BME280;23240;43.210;27.910;2023-07-13T04:43:16;101016.28;;;29.22;100.00
37368;BME280;23240;43.210;27.910;2023-07-13T04:45:41;101014.81;;;30.12;100.00
37368;BME280;23240;43.210;27.910;2023-07-13T04:48:06;101012.72;;;30.98;100.00
37368;BME280;23240;43.210;27.910;2023-07-13T04:50:32;101019.94;;;31.60;100.00
37368;BME280;23240;43.210;27.910;2023-07-13T04:52:57;101015.31;;;32.14;100.00
37368;BME280;23240;43.210;27.910;2023-07-13T04:55:23;101017.72;;;32.33;100.00
37368;BME280;23240;43.210;27.910;2023-07-13T04:57:48;101019.56;;;32.54;100.00
37368;BME280;23240;43.210;27.910;2023-07-13T05:00:14;101022.59;;;32.47;100.00
37368;BME280;23240;43.210;27.910;2023-07-13T05:02:42;101018.22;;;32.30;100.00
37368;BME280;23240;43.210;27.910;2023-07-13T05:05:08;101020.91;;;32.19;100.00
37368;BME280;23240;43.210;27.910;2023-07-13T05:07:33;101011.22;;;32.86;100.00
37368;BME280;23240;43.210;27.910;2023-07-13T05:09:59;101014.25;;;32.80;100.00
37368;BME280;23240;43.210;27.910;2023-07-13T05:12:25;101015.03;;;32.75;100.00
37368;BME280;23240;43.210;27.910;2023-07-13T05:14:50;101020.19;;;32.61;100.00
37368;BME280;23240;43.210;27.910;2023-07-13T05:17:15;101016.16;;;33.16;100.00
37368;BME280;23240;43.210;27.910;2023-07-13T05:19:41;101018.06;;;33.63;99.68
37368;BME280;23240;43.210;27.910;2023-07-13T05:22:06;101017.25;;;33.68;98.47
37368;BME280;23240;43.210;27.910;2023-07-13T05:24:31;101025.06;;;33.76;95.85
37368;BME280;23240;43.210;27.910;2023-07-13T05:26:57;101028.25;;;34.05;94.13
37368;BME280;23240;43.210;27.910;2023-07-13T05:29:22;101023.91;;;33.57;97.38
37368;BME280;23240;43.210;27.910;2023-07-13T05:31:48;101030.19;;;33.42;97.61
37368;BME280;23240;43.210;27.910;2023-07-13T05:34:14;101029.19;;;33.16;100.00
37368;BME280;23240;43.210;27.910;2023-07-13T05:36:40;101023.81;;;33.41;99.80
37368;BME280;23240;43.210;27.910;2023-07-13T05:39:05;101025.28;;;33.64;96.62
37368;BME280;23240;43.210;27.910;2023-07-13T05:41:30;101035.25;;;33.55;98.63
37368;BME280;23240;43.210;27.910;2023-07-13T05:43:56;101033.28;;;33.50;96.75
37368;BME280;23240;43.210;27.910;2023-07-13T05:46:21;101038.22;;;33.38;94.87
37368;BME280;23240;43.210;27.910;2023-07-13T05:48:46;101035.56;;;33.59;94.04
37368;BME280;23240;43.210;27.910;2023-07-13T05:51:12;101043.06;;;33.63;91.28
37368;BME280;23240;43.210;27.910;2023-07-13T05:53:44;101039.78;;;33.66;87.91
37368;BME280;23240;43.210;27.910;2023-07-13T05:56:10;101038.69;;;33.83;83.09
37368;BME280;23240;43.210;27.910;2023-07-13T05:58:35;101040.38;;;33.94;83.68
37368;BME280;23240;43.210;27.910;2023-07-13T06:01:02;101033.28;;;34.34;74.94
37368;BME280;23240;43.210;27.910;2023-07-13T06:03:28;101037.72;;;34.30;74.51
37368;BME280;23240;43.210;27.910;2023-07-13T06:05:53;101033.81;;;34.15;75.75
37368;BME280;23240;43.210;27.910;2023-07-13T06:08:19;101029.84;;;33.86;76.02
37368;BME280;23240;43.210;27.910;2023-07-13T06:10:44;101034.34;;;34.12;76.54
37368;BME280;23240;43.210;27.910;2023-07-13T06:13:09;101029.38;;;34.30;72.50
37368;BME280;23240;43.210;27.910;2023-07-13T06:15:34;101035.47;;;34.06;68.96
37368;BME280;23240;43.210;27.910;2023-07-13T06:18:00;101038.25;;;34.21;65.64
37368;BME280;23240;43.210;27.910;2023-07-13T06:20:25;101032.66;;;34.01;62.05
37368;BME280;23240;43.210;27.910;2023-07-13T06:22:50;101031.31;;;34.14;62.35
37368;BME280;23240;43.210;27.910;2023-07-13T06:25:16;101034.66;;;34.26;62.45
37368;BME280;23240;43.210;27.910;2023-07-13T06:27:42;101031.59;;;34.27;60.99
37368;BME280;23240;43.210;27.910;2023-07-13T06:30:07;101031.09;;;34.61;60.58
37368;BME280;23240;43.210;27.910;2023-07-13T06:32:33;101027.16;;;34.42;59.91
37368;BME280;23240;43.210;27.910;2023-07-13T06:34:58;101029.06;;;33.95;60.63
37368;BME280;23240;43.210;27.910;2023-07-13T06:37:24;101026.59;;;34.30;61.13
37368;BME280;23240;43.210;27.910;2023-07-13T06:39:49;101018.56;;;34.74;59.56
37368;BME280;23240;43.210;27.910;2023-07-13T06:42:15;101021.59;;;34.88;59.63
37368;BME280;23240;43.210;27.910;2023-07-13T06:44:40;101028.28;;;34.76;60.12
37368;BME280;23240;43.210;27.910;2023-07-13T06:47:06;101024.91;;;34.95;58.88
37368;BME280;23240;43.210;27.910;2023-07-13T06:49:31;101028.28;;;34.71;58.68
37368;BME280;23240;43.210;27.910;2023-07-13T06:51:56;101025.50;;;34.76;59.59
37368;BME280;23240;43.210;27.910;2023-07-13T06:54:22;101023.56;;;34.77;60.89
37368;BME280;23240;43.210;27.910;2023-07-13T06:56:47;101008.78;;;35.12;65.39
37368;BME280;23240;43.210;27.910;2023-07-13T06:59:12;101020.03;;;35.62;66.87
37368;BME280;23240;43.210;27.910;2023-07-13T07:01:38;101016.25;;;35.92;65.78
37368;BME280;23240;43.210;27.910;2023-07-13T07:04:03;101016.69;;;36.14;67.99
37368;BME280;23240;43.210;27.910;2023-07-13T07:06:29;101016.00;;;36.33;69.29
37368;BME280;23240;43.210;27.910;2023-07-13T07:08:54;101017.09;;;36.37;68.31
37368;BME280;23240;43.210;27.910;2023-07-13T07:11:20;101021.06;;;36.25;67.84
37368;BME280;23240;43.210;27.910;2023-07-13T07:13:47;101021.22;;;36.44;65.46
37368;BME280;23240;43.210;27.910;2023-07-13T07:16:12;101015.94;;;36.43;67.30
37368;BME280;23240;43.210;27.910;2023-07-13T07:18:38;101018.13;;;36.51;66.16
37368;BME280;23240;43.210;27.910;2023-07-13T07:21:03;101026.34;;;36.66;64.85
37368;BME280;23240;43.210;27.910;2023-07-13T07:23:29;101022.31;;;36.48;68.33
37368;BME280;23240;43.210;27.910;2023-07-13T07:25:54;101025.50;;;36.32;70.46
37368;BME280;23240;43.210;27.910;2023-07-13T07:28:19;101020.84;;;36.22;72.89
37368;BME280;23240;43.210;27.910;2023-07-13T07:30:45;101014.53;;;36.01;75.25
37368;BME280;23240;43.210;27.910;2023-07-13T07:33:10;101012.31;;;36.03;75.21
37368;BME280;23240;43.210;27.910;2023-07-13T07:35:36;101012.09;;;36.34;72.86
37368;BME280;23240;43.210;27.910;2023-07-13T07:38:01;101015.44;;;36.30;72.04
37368;BME280;23240;43.210;27.910;2023-07-13T07:40:26;101021.94;;;36.21;72.41
37368;BME280;23240;43.210;27.910;2023-07-13T07:42:52;101020.88;;;36.56;69.88
37368;BME280;23240;43.210;27.910;2023-07-13T07:45:18;101021.69;;;36.86;68.57
37368;BME280;23240;43.210;27.910;2023-07-13T07:47:43;101020.91;;;36.51;69.27
37368;BME280;23240;43.210;27.910;2023-07-13T07:50:09;101025.28;;;36.62;69.13
37368;BME280;23240;43.210;27.910;2023-07-13T07:52:34;101025.06;;;36.83;69.71
37368;BME280;23240;43.210;27.910;2023-07-13T07:55:00;101017.56;;;36.78;69.52
37368;BME280;23240;43.210;27.910;2023-07-13T07:57:25;101021.34;;;36.63;71.04
37368;BME280;23240;43.210;27.910;2023-07-13T07:59:51;101025.53;;;36.66;69.43
37368;BME280;23240;43.210;27.910;2023-07-13T08:02:16;101024.13;;;36.63;69.83
37368;BME280;23240;43.210;27.910;2023-07-13T08:04:41;101032.31;;;36.84;66.77
37368;BME280;23240;43.210;27.910;2023-07-13T08:07:07;101021.75;;;36.80;67.67
37368;BME280;23240;43.210;27.910;2023-07-13T08:09:32;101022.31;;;36.48;69.03
37368;BME280;23240;43.210;27.910;2023-07-13T08:11:58;101023.09;;;36.83;69.31
37368;BME280;23240;43.210;27.910;2023-07-13T08:14:23;101033.38;;;36.88;66.14
37368;BME280;23240;43.210;27.910;2023-07-13T08:16:48;101021.25;;;36.73;66.35
37368;BME280;23240;43.210;27.910;2023-07-13T08:19:14;101017.78;;;36.58;64.72
37368;BME280;23240;43.210;27.910;2023-07-13T08:21:40;101016.28;;;36.31;66.33
37368;BME280;23240;43.210;27.910;2023-07-13T08:24:07;101014.00;;;35.94;69.23
37368;BME280;23240;43.210;27.910;2023-07-13T08:26:32;101023.25;;;35.94;70.77
37368;BME280;23240;43.210;27.910;2023-07-13T08:28:57;101015.47;;;35.11;74.45
37368;BME280;23240;43.210;27.910;2023-07-13T08:31:23;101017.16;;;34.66;78.78
37368;BME280;23240;43.210;27.910;2023-07-13T08:33:48;101012.94;;;34.18;84.73
37368;BME280;23240;43.210;27.910;2023-07-13T08:36:14;101019.41;;;34.59;83.83
37368;BME280;23240;43.210;27.910;2023-07-13T08:38:39;101010.75;;;34.81;84.51
37368;BME280;23240;43.210;27.910;2023-07-13T08:41:12;101016.59;;;35.00;77.96
37368;BME280;23240;43.210;27.910;2023-07-13T08:43:38;101019.63;;;34.17;83.16
37368;BME280;23240;43.210;27.910;2023-07-13T08:46:12;101017.53;;;33.66;86.68
37368;BME280;23240;43.210;27.910;2023-07-13T08:48:40;101022.78;;;33.58;79.36
37368;BME280;23240;43.210;27.910;2023-07-13T08:51:09;101009.41;;;33.49;79.43
37368;BME280;23240;43.210;27.910;2023-07-13T08:53:40;101013.94;;;33.66;77.83
37368;BME280;23240;43.210;27.910;2023-07-13T08:56:09;101015.31;;;33.63;80.92
37368;BME280;23240;43.210;27.910;2023-07-13T08:58:36;101014.66;;;33.46;83.36
37368;BME280;23240;43.210;27.910;2023-07-13T09:01:06;101016.94;;;33.54;81.99
37368;BME280;23240;43.210;27.910;2023-07-13T09:03:42;101016.94;;;33.54;81.34
37368;BME280;23240;43.210;27.910;2023-07-13T09:06:11;101005.81;;;33.54;85.20
37368;BME280;23240;43.210;27.910;2023-07-13T09:17:02;101009.25;;;32.17;91.12
37368;BME280;23240;43.210;27.910;2023-07-13T09:19:30;101005.06;;;31.88;91.81
37368;BME280;23240;43.210;27.910;2023-07-13T09:21:57;101011.53;;;31.77;87.58
37368;BME280;23240;43.210;27.910;2023-07-13T09:27:18;101011.25;;;31.73;92.38
37368;BME280;23240;43.210;27.910;2023-07-13T09:29:48;101017.31;;;31.92;90.40
37368;BME280;23240;43.210;27.910;2023-07-13T09:32:17;101011.44;;;31.88;91.70
37368;BME280;23240;43.210;27.910;2023-07-13T09:34:49;101009.19;;;31.63;92.86
37368;BME280;23240;43.210;27.910;2023-07-13T09:37:14;101003.66;;;31.63;100.00
37368;BME280;23240;43.210;27.910;2023-07-13T09:39:40;101001.41;;;31.82;95.49
37368;BME280;23240;43.210;27.910;2023-07-13T09:44:36;100995.63;;;31.84;100.00
37368;BME280;23240;43.210;27.910;2023-07-13T09:47:03;100999.84;;;31.91;100.00
37368;BME280;23240;43.210;27.910;2023-07-13T09:49:29;100988.41;;;31.83;99.58
37368;BME280;23240;43.210;27.910;2023-07-13T09:52:16;100995.75;;;31.72;100.00
37368;BME280;23240;43.210;27.910;2023-07-13T09:54:45;100998.19;;;31.46;100.00
37368;BME280;23240;43.210;27.910;2023-07-13T09:57:18;100997.44;;;31.12;100.00
37368;BME280;23240;43.210;27.910;2023-07-13T09:59:44;100999.00;;;30.86;100.00
37368;BME280;23240;43.210;27.910;2023-07-13T10:04:55;100982.22;;;30.59;100.00
37368;BME280;23240;43.210;27.910;2023-07-13T10:07:22;100979.47;;;30.59;100.00
37368;BME280;23240;43.210;27.910;2023-07-13T10:09:47;100978.59;;;30.70;100.00
37368;BME280;23240;43.210;27.910;2023-07-13T10:12:17;100974.44;;;30.90;100.00
37368;BME280;23240;43.210;27.910;2023-07-13T10:14:43;100971.88;;;31.05;100.00
37368;BME280;23240;43.210;27.910;2023-07-13T10:17:10;100970.50;;;31.25;100.00
37368;BME280;23240;43.210;27.910;2023-07-13T10:19:37;100969.47;;;30.92;100.00
37368;BME280;23240;43.210;27.910;2023-07-13T10:22:10;100972.31;;;30.97;100.00
37368;BME280;23240;43.210;27.910;2023-07-13T10:24:39;100958.13;;;30.71;100.00
37368;BME280;23240;43.210;27.910;2023-07-13T10:27:17;100949.72;;;30.50;100.00
37368;BME280;23240;43.210;27.910;2023-07-13T10:29:47;100952.69;;;30.43;100.00
37368;BME280;23240;43.210;27.910;2023-07-13T10:32:13;100933.66;;;30.30;100.00
37368;BME280;23240;43.210;27.910;2023-07-13T10:34:39;100943.03;;;30.29;100.00
37368;BME280;23240;43.210;27.910;2023-07-13T10:37:05;100953.75;;;30.25;100.00
37368;BME280;23240;43.210;27.910;2023-07-13T10:39:33;100951.25;;;30.24;100.00
37368;BME280;23240;43.210;27.910;2023-07-13T10:42:00;100952.75;;;30.14;100.00
37368;BME280;23240;43.210;27.910;2023-07-13T10:44:29;100952.25;;;30.17;100.00
37368;BME280;23240;43.210;27.910;2023-07-13T10:46:56;100944.31;;;30.38;100.00
37368;BME280;23240;43.210;27.910;2023-07-13T10:49:22;100947.31;;;30.53;100.00
37368;BME280;23240;43.210;27.910;2023-07-13T10:51:48;100944.63;;;30.25;100.00
37368;BME280;23240;43.210;27.910;2023-07-13T10:54:17;100942.88;;;30.18;100.00
37368;BME280;23240;43.210;27.910;2023-07-13T10:56:43;100933.59;;;29.96;100.00
37368;BME280;23240;43.210;27.910;2023-07-13T10:59:14;100941.97;;;30.01;100.00
37368;BME280;23240;43.210;27.910;2023-07-13T11:01:41;100939.84;;;30.20;100.00
37368;BME280;23240;43.210;27.910;2023-07-13T11:04:12;100941.44;;;30.16;100.00
37368;BME280;23240;43.210;27.910;2023-07-13T11:06:38;100939.38;;;30.23;100.00
37368;BME280;23240;43.210;27.910;2023-07-13T11:11:50;100943.72;;;30.19;100.00
37368;BME280;23240;43.210;27.910;2023-07-13T11:16:46;100939.22;;;30.01;100.00
37368;BME280;23240;43.210;27.910;2023-07-13T11:22:40;100948.69;;;29.88;100.00
37368;BME280;23240;43.210;27.910;2023-07-13T11:24:28;100940.25;;;29.66;100.00
37368;BME280;23240;43.210;27.910;2023-07-13T11:26:55;100944.09;;;29.65;100.00
37368;BME280;23240;43.210;27.910;2023-07-13T11:31:53;100947.41;;;29.79;100.00
37368;BME280;23240;43.210;27.910;2023-07-13T11:34:24;100950.91;;;29.75;100.00
37368;BME280;23240;43.210;27.910;2023-07-13T11:36:52;100948.63;;;29.72;100.00
37368;BME280;23240;43.210;27.910;2023-07-13T11:39:19;100947.31;;;29.74;100.00
37368;BME280;23240;43.210;27.910;2023-07-13T11:41:53;100940.13;;;29.90;100.00
37368;BME280;23240;43.210;27.910;2023-07-13T11:44:23;100948.84;;;29.99;100.00
37368;BME280;23240;43.210;27.910;2023-07-13T11:46:52;100941.22;;;30.17;100.00
37368;BME280;23240;43.210;27.910;2023-07-13T11:49:19;100948.91;;;30.15;100.00
37368;BME280;23240;43.210;27.910;2023-07-13T11:51:45;100938.75;;;29.76;100.00
37368;BME280;23240;43.210;27.910;2023-07-13T11:54:21;100919.38;;;29.59;100.00
37368;BME280;23240;43.210;27.910;2023-07-13T11:56:48;100920.44;;;29.69;100.00
37368;BME280;23240;43.210;27.910;2023-07-13T11:59:14;100921.59;;;29.74;100.00
37368;BME280;23240;43.210;27.910;2023-07-13T12:01:46;100923.69;;;29.66;100.00
37368;BME280;23240;43.210;27.910;2023-07-13T12:04:23;100934.25;;;29.69;100.00
37368;BME280;23240;43.210;27.910;2023-07-13T12:06:57;100923.50;;;29.56;100.00
37368;BME280;23240;43.210;27.910;2023-07-13T12:09:25;100929.88;;;29.45;100.00
37368;BME280;23240;43.210;27.910;2023-07-13T12:11:51;100918.22;;;29.43;100.00
37368;BME280;23240;43.210;27.910;2023-07-13T12:14:16;100922.06;;;29.42;100.00
37368;BME280;23240;43.210;27.910;2023-07-13T12:16:42;100931.72;;;29.28;100.00
37368;BME280;23240;43.210;27.910;2023-07-13T12:19:14;100924.03;;;29.30;100.00
37368;BME280;23240;43.210;27.910;2023-07-13T12:21:41;100929.69;;;29.23;100.00
37368;BME280;23240;43.210;27.910;2023-07-13T12:24:13;100920.94;;;29.14;100.00
37368;BME280;23240;43.210;27.910;2023-07-13T12:26:39;100919.03;;;29.15;100.00
37368;BME280;23240;43.210;27.910;2023-07-13T12:29:06;100908.47;;;29.24;100.00
37368;BME280;23240;43.210;27.910;2023-07-13T12:31:34;100908.91;;;29.32;100.00
37368;BME280;23240;43.210;27.910;2023-07-13T12:34:05;100908.84;;;29.44;100.00
37368;BME280;23240;43.210;27.910;2023-07-13T12:36:32;100914.28;;;29.39;100.00
37368;BME280;23240;43.210;27.910;2023-07-13T12:38:59;100912.50;;;29.33;100.00
37368;BME280;23240;43.210;27.910;2023-07-13T12:41:28;100897.53;;;29.29;100.00
37368;BME280;23240;43.210;27.910;2023-07-13T12:43:53;100887.84;;;29.26;100.00
37368;BME280;23240;43.210;27.910;2023-07-13T12:46:19;100885.19;;;29.19;100.00
37368;BME280;23240;43.210;27.910;2023-07-13T12:48:48;100891.53;;;29.32;100.00
37368;BME280;23240;43.210;27.910;2023-07-13T12:51:13;100892.94;;;29.34;100.00
37368;BME280;23240;43.210;27.910;2023-07-13T12:53:43;100894.75;;;29.29;100.00
37368;BME280;23240;43.210;27.910;2023-07-13T12:56:15;100888.78;;;29.32;100.00
37368;BME280;23240;43.210;27.910;2023-07-13T12:58:43;100879.09;;;29.17;100.00